Time;durP1;ratioP1;P1;durP2;ratioP2;P2;SDS_P1;SDS_P2;PMS_P1;PMS_P2;Temp;Humidity;BMP_temperature;BMP_pressure;BME280_temperature;BME280_humidity;BME280_pressure;Samples;Min_cycle;Max_cycle;Signal;HPM_P1;HPM_P2
2021/07/28 00:02:12;;;;;;;8.95;8.05;;;17.80;99.90;;;;;;5022063;28;20024;-42
2021/07/28 00:04:39;;;;;;;9.00;8.10;;;17.80;99.90;;;;;;5010031;28;20172;-41
2021/07/28 00:07:06;;;;;;;9.98;7.68;;;17.80;99.90;;;;;;5021417;28;20041;-40
2021/07/28 00:09:31;;;;;;;9.43;8.07;;;17.70;99.90;;;;;;4990431;28;20038;-40
2021/07/28 00:11:57;;;;;;;12.35;8.80;;;17.70;99.90;;;;;;5013537;28;20167;-42
2021/07/28 00:14:23;;;;;;;9.35;8.35;;;17.70;99.90;;;;;;5011465;28;20053;-42
2021/07/28 00:16:48;;;;;;;9.02;7.57;;;17.70;99.90;;;;;;5017650;28;20449;-41
2021/07/28 00:19:20;;;;;;;9.00;8.10;;;17.70;99.90;;;;;;5014879;28;20504;-39
2021/07/28 00:24:32;;;;;;;9.55;7.97;;;17.60;99.90;;;;;;5014986;28;20037;-42
2021/07/28 00:26:59;;;;;;;8.90;7.57;;;17.60;99.90;;;;;;5023153;28;20037;-40
2021/07/28 00:29:25;;;;;;;8.35;7.45;;;17.60;99.90;;;;;;5022015;28;20025;-42
2021/07/28 00:31:54;;;;;;;8.82;7.88;;;17.50;99.90;;;;;;5026657;28;20033;-42
2021/07/28 00:34:20;;;;;;;9.30;8.30;;;17.50;99.90;;;;;;5020333;28;20028;-40
2021/07/28 00:36:48;;;;;;;9.60;7.95;;;17.50;99.90;;;;;;5027116;28;20043;-42
2021/07/28 00:39:14;;;;;;;10.02;7.78;;;17.50;99.90;;;;;;5006951;28;20493;-42
2021/07/28 00:41:40;;;;;;;9.15;8.25;;;17.40;99.90;;;;;;5027476;28;20113;-41
2021/07/28 00:44:06;;;;;;;9.45;7.85;;;17.40;99.90;;;;;;5017250;28;20044;-40
2021/07/28 00:46:31;;;;;;;9.13;8.20;;;17.40;99.90;;;;;;5028868;28;20468;-41
2021/07/28 00:48:57;;;;;;;12.20;8.50;;;17.40;99.90;;;;;;5016517;28;20013;-40
2021/07/28 00:51:23;;;;;;;9.43;8.35;;;17.40;99.90;;;;;;5027715;28;20457;-42
2021/07/28 00:53:49;;;;;;;10.93;8.57;;;17.40;99.90;;;;;;5016979;28;20033;-42
2021/07/28 00:56:17;;;;;;;9.88;8.93;;;17.40;99.90;;;;;;5029529;28;20021;-42
2021/07/28 00:58:42;;;;;;;10.13;9.00;;;17.30;99.90;;;;;;5016745;28;20064;-42
2021/07/28 01:01:08;;;;;;;11.45;8.90;;;17.30;99.90;;;;;;5028063;28;20469;-42
2021/07/28 01:03:35;;;;;;;9.65;8.55;;;17.30;99.90;;;;;;5019181;28;20032;-42
2021/07/28 01:06:00;;;;;;;10.63;8.55;;;17.30;99.90;;;;;;5024813;28;20099;-40
2021/07/28 01:08:27;;;;;;;10.07;8.60;;;17.30;99.90;;;;;;5022168;28;20030;-42
2021/07/28 01:10:55;;;;;;;10.15;8.45;;;17.30;99.90;;;;;;5022863;28;20021;-42
2021/07/28 01:13:26;;;;;;;9.70;8.15;;;17.30;99.90;;;;;;5024324;28;20512;-40
2021/07/28 01:16:10;;;;;;;11.13;8.43;;;17.30;99.90;;;;;;5021544;28;20025;-42
2021/07/28 01:18:36;;;;;;;12.48;9.35;;;17.20;99.90;;;;;;5022494;28;20359;-42
2021/07/28 01:21:02;;;;;;;10.00;9.00;;;17.20;99.90;;;;;;5021578;28;20067;-43
2021/07/28 01:23:29;;;;;;;10.43;8.68;;;17.20;99.90;;;;;;5026197;28;20079;-40
2021/07/28 01:25:58;;;;;;;13.93;9.30;;;17.20;99.90;;;;;;5020576;28;20120;-41
2021/07/28 01:28:25;;;;;;;13.75;9.10;;;17.10;99.90;;;;;;5025988;28;20489;-42
2021/07/28 01:31:02;;;;;;;9.40;8.50;;;17.20;99.90;;;;;;5018135;28;20029;-41
2021/07/28 01:33:30;;;;;;;9.80;8.60;;;17.10;99.90;;;;;;5026166;28;20026;-41
2021/07/28 01:36:00;;;;;;;11.98;9.05;;;17.10;99.90;;;;;;5016431;28;20560;-42
2021/07/28 01:38:27;;;;;;;10.55;8.60;;;17.10;99.90;;;;;;5030609;28;20022;-41
2021/07/28 01:40:56;;;;;;;12.75;9.02;;;17.10;99.90;;;;;;5020909;28;20072;-42
2021/07/28 01:43:23;;;;;;;10.05;8.85;;;17.10;99.90;;;;;;5031918;28;20053;-42
2021/07/28 01:45:49;;;;;;;12.60;8.93;;;17.00;99.90;;;;;;5020100;28;20014;-39
2021/07/28 01:48:14;;;;;;;10.48;9.27;;;17.10;99.90;;;;;;5032528;28;20032;-43
2021/07/28 01:50:42;;;;;;;9.35;8.38;;;17.00;99.90;;;;;;5019069;28;20117;-42
2021/07/28 01:53:08;;;;;;;9.68;8.68;;;17.00;99.90;;;;;;5031486;28;20552;-43
2021/07/28 01:55:33;;;;;;;11.27;9.05;;;17.00;99.90;;;;;;5020985;28;20146;-43
2021/07/28 01:57:59;;;;;;;11.30;9.80;;;17.00;99.90;;;;;;5031628;28;20029;-43
2021/07/28 02:00:25;;;;;;;10.32;8.43;;;17.00;99.90;;;;;;5022574;28;20030;-42
2021/07/28 02:02:51;;;;;;;10.88;9.15;;;17.00;99.90;;;;;;5028135;28;20112;-43
2021/07/28 02:05:20;;;;;;;9.70;7.88;;;16.90;99.90;;;;;;5025534;28;20440;-42
2021/07/28 02:07:45;;;;;;;9.35;8.45;;;16.90;99.90;;;;;;5025776;28;20064;-42
2021/07/28 02:10:11;;;;;;;11.40;8.70;;;16.90;99.90;;;;;;5027868;28;20469;-42
2021/07/28 02:12:36;;;;;;;9.80;8.73;;;16.90;99.90;;;;;;5022976;28;20084;-43
2021/07/28 02:15:02;;;;;;;10.73;8.68;;;16.90;99.90;;;;;;5029920;28;20465;-43
2021/07/28 02:17:28;;;;;;;10.63;8.45;;;16.90;99.90;;;;;;5019690;28;20091;-43
2021/07/28 02:19:53;;;;;;;10.52;8.23;;;16.90;99.90;;;;;;5030779;28;20033;-39
2021/07/28 02:22:19;;;;;;;10.70;9.30;;;16.80;99.90;;;;;;5020036;28;20104;-43
2021/07/28 02:24:44;;;;;;;11.02;9.02;;;16.90;99.90;;;;;;5030235;28;20087;-42
2021/07/28 02:27:10;;;;;;;9.73;8.60;;;16.90;99.90;;;;;;5023999;28;20018;-42
2021/07/28 02:29:36;;;;;;;13.20;9.57;;;16.90;99.90;;;;;;5010780;28;20465;-42
2021/07/28 02:32:03;;;;;;;12.48;9.57;;;16.90;99.90;;;;;;5024679;28;20032;-42
2021/07/28 02:34:32;;;;;;;10.52;8.93;;;17.00;99.90;;;;;;5011081;28;20029;-43
2021/07/28 02:36:58;;;;;;;10.65;8.30;;;17.00;99.90;;;;;;5021919;28;20057;-42
2021/07/28 02:39:23;;;;;;;9.27;8.15;;;16.90;99.90;;;;;;5011437;28;20127;-41
2021/07/28 02:41:49;;;;;;;10.55;8.02;;;16.90;99.90;;;;;;5019817;28;20465;-42
2021/07/28 02:44:15;;;;;;;9.38;8.38;;;16.90;99.90;;;;;;5015418;28;20025;-42
2021/07/28 02:46:40;;;;;;;12.15;8.20;;;16.90;99.90;;;;;;5017474;28;20017;-42
2021/07/28 02:49:06;;;;;;;10.00;7.85;;;16.90;99.90;;;;;;5016380;28;20026;-42
2021/07/28 02:51:31;;;;;;;10.27;7.78;;;16.90;99.90;;;;;;5014585;28;20374;-40
2021/07/28 02:53:56;;;;;;;9.02;7.95;;;16.90;99.90;;;;;;5020531;28;20073;-43
2021/07/28 02:56:25;;;;;;;11.13;8.85;;;16.90;99.90;;;;;;5011322;28;20034;-44
2021/07/28 02:58:50;;;;;;;8.02;7.22;;;16.90;99.90;;;;;;5021992;28;20026;-41
2021/07/28 03:01:16;;;;;;;9.07;7.70;;;16.90;99.90;;;;;;5013062;28;20109;-43
2021/07/28 03:03:44;;;;;;;9.90;7.80;;;17.00;99.90;;;;;;5021852;28;20389;-45
2021/07/28 03:06:10;;;;;;;9.45;8.07;;;17.00;99.90;;;;;;5010886;28;20053;-45
2021/07/28 03:08:35;;;;;;;9.02;7.53;;;17.00;99.90;;;;;;5023850;28;20470;-43
2021/07/28 03:11:01;;;;;;;9.05;7.35;;;17.10;99.90;;;;;;5011078;28;20104;-43
2021/07/28 03:13:29;;;;;;;10.02;8.00;;;17.10;99.90;;;;;;5022765;28;20034;-43
2021/07/28 03:16:03;;;;;;;6.65;6.05;;;17.20;99.90;;;;;;5011854;28;20440;-41
2021/07/28 03:18:28;;;;;;;9.68;6.90;;;17.20;99.90;;;;;;5022099;28;20036;-41
2021/07/28 03:20:55;;;;;;;9.20;7.97;;;17.10;99.90;;;;;;5011572;28;20021;-40
2021/07/28 03:23:21;;;;;;;8.77;7.03;;;17.20;99.90;;;;;;5020673;28;20025;-45
2021/07/28 03:25:46;;;;;;;9.50;7.72;;;17.20;99.90;;;;;;5023090;28;20022;-43
2021/07/28 03:28:12;;;;;;;10.70;7.82;;;17.10;99.90;;;;;;5023419;28;20024;-43
2021/07/28 03:30:37;;;;;;;8.75;7.50;;;17.20;99.90;;;;;;5024699;28;20017;-41
2021/07/28 03:33:03;;;;;;;7.82;7.03;;;17.20;99.90;;;;;;5025517;28;20121;-45
2021/07/28 03:35:28;;;;;;;10.23;8.10;;;17.30;99.90;;;;;;5022140;28;20469;-45
2021/07/28 03:37:54;;;;;;;8.30;7.07;;;17.30;99.90;;;;;;5029098;28;20021;-44
2021/07/28 03:40:20;;;;;;;10.50;8.77;;;17.30;99.90;;;;;;5019368;28;20005;-46
2021/07/28 03:42:47;;;;;;;9.80;8.38;;;17.20;99.90;;;;;;5028693;28;20048;-42
2021/07/28 03:45:16;;;;;;;10.00;8.50;;;17.30;99.90;;;;;;5018440;28;20053;-45
2021/07/28 03:47:42;;;;;;;9.73;8.27;;;17.30;99.90;;;;;;5028218;28;20075;-43
2021/07/28 03:50:08;;;;;;;8.25;7.38;;;17.30;99.90;;;;;;5019537;28;20018;-41
2021/07/28 03:52:34;;;;;;;8.23;7.43;;;17.30;99.90;;;;;;5029055;28;20042;-46
2021/07/28 03:54:59;;;;;;;8.05;7.25;;;17.30;99.90;;;;;;5017604;28;20029;-43
2021/07/28 03:57:25;;;;;;;7.00;6.30;;;17.30;99.90;;;;;;5029997;28;20381;-43
2021/07/28 03:59:50;;;;;;;11.68;8.75;;;17.30;99.90;;;;;;5017229;28;20064;-44
2021/07/28 04:02:18;;;;;;;11.10;8.73;;;17.20;99.90;;;;;;5029752;28;20473;-45
2021/07/28 04:04:46;;;;;;;8.95;7.88;;;17.20;99.90;;;;;;5019998;28;20036;-44
2021/07/28 04:07:12;;;;;;;9.43;8.32;;;17.20;99.90;;;;;;5026648;28;20045;-45
2021/07/28 04:09:44;;;;;;;8.57;7.68;;;17.20;99.90;;;;;;5021739;28;20025;-44
2021/07/28 04:12:09;;;;;;;9.23;7.77;;;17.20;99.90;;;;;;5026664;28;20042;-43
2021/07/28 04:14:35;;;;;;;7.22;6.50;;;17.30;99.90;;;;;;5022595;28;20018;-44
2021/07/28 04:17:03;;;;;;;8.43;7.47;;;17.30;99.90;;;;;;5023925;28;20067;-44
2021/07/28 04:19:29;;;;;;;11.02;7.80;;;17.20;99.90;;;;;;5024792;28;20022;-45
2021/07/28 04:21:54;;;;;;;8.30;7.10;;;17.30;99.90;;;;;;5020626;28;20496;-45
2021/07/28 04:24:20;;;;;;;9.27;7.90;;;17.20;99.90;;;;;;5027771;28;20025;-46
2021/07/28 04:26:55;;;;;;;9.10;7.72;;;17.30;99.90;;;;;;5027452;28;20022;-44
2021/07/28 04:29:23;;;;;;;10.93;8.23;;;17.20;99.90;;;;;;5025614;28;20021;-45
2021/07/28 04:31:49;;;;;;;8.77;7.53;;;17.20;99.90;;;;;;5020692;28;20022;-44
2021/07/28 04:34:17;;;;;;;10.68;8.23;;;17.30;99.90;;;;;;5010460;28;20036;-44
2021/07/28 04:36:43;;;;;;;11.38;7.57;;;17.20;99.90;;;;;;5016709;28;20028;-45
2021/07/28 04:39:08;;;;;;;10.38;8.13;;;17.30;99.90;;;;;;5009562;28;20014;-44
2021/07/28 04:41:34;;;;;;;10.32;8.43;;;17.30;99.90;;;;;;5020776;28;20041;-45
2021/07/28 04:43:59;;;;;;;11.18;8.18;;;17.30;99.90;;;;;;5009658;28;20051;-43
2021/07/28 04:46:25;;;;;;;7.63;6.93;;;17.30;99.90;;;;;;5020952;28;20088;-43
2021/07/28 04:48:50;;;;;;;9.52;8.35;;;17.40;99.90;;;;;;4989720;28;20031;-43
2021/07/28 04:51:16;;;;;;;10.80;8.52;;;17.40;99.90;;;;;;5013675;28;20009;-42
2021/07/28 04:53:41;;;;;;;10.65;8.80;;;17.40;99.90;;;;;;5011939;28;20033;-43
2021/07/28 04:56:07;;;;;;;10.15;8.95;;;17.40;99.90;;;;;;5016277;28;20049;-44
2021/07/28 04:58:32;;;;;;;10.02;8.95;;;17.40;99.90;;;;;;5013759;28;20128;-45
2021/07/28 05:00:58;;;;;;;9.13;8.18;;;17.40;99.90;;;;;;5014179;28;20021;-45
2021/07/28 05:03:23;;;;;;;10.93;9.40;;;17.40;99.90;;;;;;5016676;28;20545;-43
2021/07/28 05:05:49;;;;;;;10.52;8.20;;;17.40;99.90;;;;;;5010928;28;20057;-46
2021/07/28 05:08:14;;;;;;;11.15;9.05;;;17.40;99.90;;;;;;5019743;28;20018;-46
2021/07/28 05:10:40;;;;;;;9.70;8.43;;;17.40;99.90;;;;;;5009898;28;20044;-45
2021/07/28 05:13:05;;;;;;;12.95;9.50;;;17.40;99.90;;;;;;5019917;28;20030;-45
2021/07/28 05:15:34;;;;;;;10.57;8.88;;;17.40;99.90;;;;;;5009027;28;20064;-44
2021/07/28 05:17:59;;;;;;;11.30;9.55;;;17.50;99.90;;;;;;5020468;28;20018;-45
2021/07/28 05:20:25;;;;;;;11.25;9.32;;;17.50;99.90;;;;;;5007977;28;20033;-40
2021/07/28 05:22:53;;;;;;;10.73;8.82;;;17.50;99.90;;;;;;5022133;28;20076;-45
2021/07/28 05:25:19;;;;;;;10.55;9.10;;;17.50;99.90;;;;;;5012850;28;20346;-41
2021/07/28 05:27:44;;;;;;;10.25;9.15;;;17.50;99.90;;;;;;5016816;28;20029;-42
2021/07/28 05:30:10;;;;;;;10.95;8.75;;;17.60;99.90;;;;;;5029210;28;20032;-43
2021/07/28 05:32:38;;;;;;;11.48;9.30;;;17.60;99.90;;;;;;5017706;28;20030;-45
2021/07/28 05:35:04;;;;;;;10.68;8.52;;;17.60;99.90;;;;;;5026607;28;20108;-45
2021/07/28 05:37:32;;;;;;;8.43;7.47;;;17.60;99.90;;;;;;5020803;28;20108;-45
2021/07/28 05:39:58;;;;;;;9.40;7.93;;;17.70;99.90;;;;;;5023849;28;20112;-45
2021/07/28 05:42:23;;;;;;;13.60;9.88;;;17.70;99.90;;;;;;5022585;28;20112;-43
2021/07/28 05:44:49;;;;;;;11.82;9.75;;;17.70;99.90;;;;;;5020036;28;20026;-43
2021/07/28 05:47:14;;;;;;;10.30;8.52;;;17.70;99.90;;;;;;5026667;28;20089;-42
2021/07/28 05:49:40;;;;;;;10.70;9.60;;;17.70;99.90;;;;;;5018743;28;20477;-45
2021/07/28 05:52:06;;;;;;;10.30;8.68;;;17.80;99.90;;;;;;5027063;28;20028;-43
2021/07/28 05:54:31;;;;;;;9.73;8.73;;;17.80;99.90;;;;;;5017150;28;20017;-42
2021/07/28 05:56:57;;;;;;;13.00;10.25;;;17.80;99.90;;;;;;5028534;28;20052;-43
2021/07/28 05:59:22;;;;;;;12.13;10.25;;;17.80;99.90;;;;;;5015619;28;20504;-39
2021/07/28 06:01:48;;;;;;;11.32;9.50;;;17.90;99.90;;;;;;5029070;28;20108;-40
2021/07/28 06:04:14;;;;;;;12.13;10.05;;;18.00;99.90;;;;;;5016850;28;20037;-41
2021/07/28 06:06:39;;;;;;;10.57;9.48;;;18.00;99.90;;;;;;5027661;28;20053;-44
2021/07/28 06:09:05;;;;;;;11.68;9.32;;;18.00;99.90;;;;;;5016919;28;20034;-43
2021/07/28 06:11:31;;;;;;;11.57;9.55;;;18.00;99.90;;;;;;5027254;28;20030;-43
2021/07/28 06:14:02;;;;;;;12.90;10.90;;;18.00;99.90;;;;;;5019398;28;20500;-42
2021/07/28 06:16:28;;;;;;;14.47;11.03;;;18.10;99.90;;;;;;5025648;28;20025;-44
2021/07/28 06:18:59;;;;;;;13.43;11.13;;;18.10;99.90;;;;;;5021967;28;20269;-43
2021/07/28 06:21:25;;;;;;;12.97;11.43;;;18.20;99.90;;;;;;5022614;28;20052;-43
2021/07/28 06:23:50;;;;;;;13.65;12.23;;;18.20;99.90;;;;;;5024125;28;20107;-45
2021/07/28 06:26:16;;;;;;;14.68;11.48;;;18.20;99.90;;;;;;5013534;28;20034;-42
2021/07/28 06:28:45;;;;;;;14.10;11.30;;;18.30;99.90;;;;;;5013939;28;20022;-44
2021/07/28 06:31:11;;;;;;;13.35;11.02;;;18.30;99.90;;;;;;5021335;28;20020;-42
2021/07/28 06:33:36;;;;;;;13.32;11.93;;;18.30;99.90;;;;;;5012753;28;20018;-44
2021/07/28 06:36:02;;;;;;;13.38;11.50;;;18.30;99.90;;;;;;5022593;28;20482;-42
2021/07/28 06:38:27;;;;;;;14.27;12.00;;;18.40;99.90;;;;;;5011983;28;20029;-44
2021/07/28 06:40:53;;;;;;;13.65;11.85;;;18.40;99.90;;;;;;5023044;28;20014;-46
2021/07/28 06:43:18;;;;;;;11.63;10.43;;;18.40;99.90;;;;;;5010835;28;20030;-43
2021/07/28 06:45:44;;;;;;;17.17;13.70;;;18.50;99.90;;;;;;5023260;28;20030;-45
2021/07/28 06:48:12;;;;;;;13.32;11.82;;;18.50;99.90;;;;;;5011223;28;20048;-45
2021/07/28 06:50:37;;;;;;;14.15;12.15;;;18.60;99.90;;;;;;5022909;28;20108;-45
2021/07/28 06:53:03;;;;;;;11.65;10.45;;;18.60;99.90;;;;;;5011741;28;20109;-43
2021/07/28 06:55:29;;;;;;;12.25;10.95;;;18.70;99.90;;;;;;5020208;28;20116;-41
2021/07/28 06:57:55;;;;;;;12.07;10.60;;;18.80;99.90;;;;;;5013497;28;20026;-45
2021/07/28 07:00:20;;;;;;;12.82;11.32;;;18.80;99.90;;;;;;5018637;28;20373;-44
2021/07/28 07:02:46;;;;;;;13.80;12.27;;;18.80;99.90;;;;;;5015569;28;20088;-45
2021/07/28 07:05:11;;;;;;;13.30;11.77;;;18.90;99.90;;;;;;5017036;28;20525;-45
2021/07/28 07:07:38;;;;;;;13.45;12.07;;;18.90;99.90;;;;;;5016950;28;20054;-45
2021/07/28 07:10:08;;;;;;;13.38;11.77;;;18.90;99.90;;;;;;5012979;28;20013;-43
2021/07/28 07:12:35;;;;;;;12.23;11.00;;;18.90;99.90;;;;;;5019882;28;20104;-41
2021/07/28 07:15:00;;;;;;;12.30;11.00;;;19.10;99.90;;;;;;5013095;28;20025;-42
2021/07/28 07:17:26;;;;;;;12.35;10.65;;;19.10;99.90;;;;;;5021119;28;20030;-43
2021/07/28 07:19:51;;;;;;;11.05;9.75;;;19.20;99.90;;;;;;5013230;28;20068;-42
2021/07/28 07:22:17;;;;;;;13.15;11.38;;;19.30;99.90;;;;;;5022305;28;20113;-42
2021/07/28 07:24:43;;;;;;;13.05;10.93;;;19.40;99.90;;;;;;5009672;28;20092;-44
2021/07/28 07:27:09;;;;;;;12.25;10.75;;;19.40;99.90;;;;;;5023136;28;20044;-42
2021/07/28 07:29:34;;;;;;;10.93;9.18;;;19.30;99.90;;;;;;5010315;28;20478;-46
2021/07/28 07:32:02;;;;;;;9.80;8.68;;;19.30;99.90;;;;;;5022708;28;20021;-42
2021/07/28 07:34:27;;;;;;;12.25;9.50;;;19.30;99.90;;;;;;5009159;28;20030;-44
2021/07/28 07:36:53;;;;;;;8.50;7.63;;;19.20;99.90;;;;;;5020520;28;20427;-46
2021/07/28 07:39:18;;;;;;;11.40;9.02;;;19.20;99.90;;;;;;5012037;28;20026;-45
2021/07/28 07:41:44;;;;;;;11.73;8.90;;;19.10;99.90;;;;;;5017374;28;20036;-41
2021/07/28 07:44:10;;;;;;;8.77;7.70;;;19.10;99.90;;;;;;5015837;28;20045;-42
2021/07/28 07:46:35;;;;;;;9.18;7.15;;;19.20;99.90;;;;;;5014401;28;20024;-45
2021/07/28 07:49:00;;;;;;;8.10;7.30;;;19.30;99.90;;;;;;5018724;28;20557;-41
2021/07/28 07:51:28;;;;;;;8.95;6.90;;;19.30;99.90;;;;;;5011124;28;20107;-43
2021/07/28 07:53:56;;;;;;;6.53;5.88;;;19.40;99.90;;;;;;5019978;28;20555;-43
2021/07/28 07:56:22;;;;;;;9.05;6.97;;;19.50;99.90;;;;;;5011227;28;20026;-44
2021/07/28 07:58:47;;;;;;;9.30;6.90;;;19.70;99.90;;;;;;5020957;28;20018;-43
2021/07/28 08:01:13;;;;;;;8.73;6.82;;;19.80;99.90;;;;;;5011846;28;20030;-42
2021/07/28 08:03:40;;;;;;;7.63;6.43;;;20.00;99.90;;;;;;5020406;28;20026;-42
2021/07/28 08:06:07;;;;;;;9.13;5.88;;;20.00;99.90;;;;;;5009526;28;20104;-43
2021/07/28 08:08:33;;;;;;;7.65;5.60;;;20.00;99.90;;;;;;5021691;28;20021;-43
2021/07/28 08:11:00;;;;;;;7.22;5.57;;;20.00;99.90;;;;;;5009971;28;20137;-43
2021/07/28 08:13:27;;;;;;;7.35;5.78;;;20.00;99.90;;;;;;5021594;28;20025;-44
2021/07/28 08:15:53;;;;;;;9.32;6.35;;;20.00;99.90;;;;;;5010032;28;20026;-43
2021/07/28 08:18:19;;;;;;;7.03;6.03;;;20.00;99.90;;;;;;5020463;28;20049;-42
2021/07/28 08:20:45;;;;;;;8.60;5.70;;;20.10;99.90;;;;;;5010784;28;20057;-43
2021/07/28 08:23:13;;;;;;;6.60;5.28;;;20.20;99.90;;;;;;5017510;28;20017;-42
2021/07/28 08:25:38;;;;;;;7.15;5.68;;;20.20;99.90;;;;;;5017691;28;20463;-43
2021/07/28 08:28:04;;;;;;;6.05;5.45;;;20.10;99.90;;;;;;5023238;28;20088;-43
2021/07/28 08:30:29;;;;;;;8.65;5.65;;;19.90;99.90;;;;;;5022628;28;20025;-41
2021/07/28 08:32:55;;;;;;;6.88;5.00;;;19.80;99.90;;;;;;5024716;28;20037;-43
2021/07/28 08:35:20;;;;;;;8.13;5.47;;;19.70;99.90;;;;;;5018955;28;20013;-43
2021/07/28 08:37:46;;;;;;;5.70;4.90;;;19.80;99.90;;;;;;5027683;28;20512;-38
2021/07/28 08:40:19;;;;;;;8.63;5.15;;;19.90;99.90;;;;;;5017692;28;20590;-43
2021/07/28 08:42:48;;;;;;;5.60;4.60;;;19.90;99.90;;;;;;5026584;28;20124;-41
2021/07/28 08:45:15;;;;;;;8.43;5.15;;;20.00;99.90;;;;;;5018609;28;20025;-45
2021/07/28 08:47:42;;;;;;;7.40;6.07;;;20.00;99.90;;;;;;5025785;28;20036;-44
2021/07/28 08:50:09;;;;;;;8.10;4.82;;;20.10;99.90;;;;;;5017848;28;20045;-44
2021/07/28 08:52:39;;;;;;;7.05;5.78;;;20.20;99.90;;;;;;5028674;28;20477;-43
2021/07/28 08:55:06;;;;;;;5.53;4.97;;;20.20;99.90;;;;;;5016044;28;20465;-43
2021/07/28 08:57:33;;;;;;;6.85;5.13;;;20.40;99.90;;;;;;5028443;28;20091;-43
2021/07/28 08:59:59;;;;;;;6.18;5.07;;;20.60;99.90;;;;;;5016283;28;20398;-44
2021/07/28 09:02:25;;;;;;;5.35;4.20;;;20.80;99.90;;;;;;5027314;28;20444;-44
2021/07/28 09:04:51;;;;;;;5.38;4.53;;;21.00;99.90;;;;;;5017650;28;20026;-42
2021/07/28 09:07:20;;;;;;;6.07;4.50;;;21.10;99.90;;;;;;5027740;28;20056;-45
2021/07/28 09:09:53;;;;;;;6.57;4.10;;;21.10;99.90;;;;;;5019611;28;20030;-46
2021/07/28 09:12:42;;;;;;;4.47;3.83;;;21.10;99.90;;;;;;5025921;28;20032;-43
2021/07/28 09:15:08;;;;;;;5.07;3.72;;;21.00;99.90;;;;;;5019319;28;20030;-44
2021/07/28 09:17:44;;;;;;;5.00;3.42;;;20.90;99.90;;;;;;5025339;28;20117;-44
2021/07/28 09:20:09;;;;;;;5.00;3.72;;;20.70;99.90;;;;;;5019893;28;20018;-44
2021/07/28 09:22:41;;;;;;;6.18;3.72;;;20.60;99.90;;;;;;5024663;28;20049;-43
2021/07/28 09:25:13;;;;;;;12.82;4.53;;;20.50;99.90;;;;;;5021893;28;20409;-39
2021/07/28 09:27:42;;;;;;;7.00;3.95;;;20.50;99.90;;;;;;5027812;28;20569;-46
2021/07/28 09:30:09;;;;;;;4.80;3.78;;;20.50;99.90;;;;;;5021991;28;20026;-46
2021/07/28 09:32:35;;;;;;;4.43;3.80;;;20.60;99.90;;;;;;5021396;28;20034;-44
2021/07/28 09:35:01;;;;;;;4.82;4.10;;;20.80;99.90;;;;;;5025312;28;20018;-43
2021/07/28 09:37:27;;;;;;;4.75;4.07;;;20.90;99.90;;;;;;5018785;28;20021;-41
2021/07/28 09:39:53;;;;;;;4.50;3.47;;;21.00;99.90;;;;;;5027214;28;20477;-41
2021/07/28 09:42:28;;;;;;;4.50;3.05;;;21.10;99.90;;;;;;5017633;28;20079;-43
2021/07/28 09:44:59;;;;;;;6.47;4.38;;;21.20;99.90;;;;;;5027256;28;20035;-44
2021/07/28 09:47:26;;;;;;;3.93;3.30;;;21.20;99.70;;;;;;5016961;28;20361;-42
2021/07/28 09:49:57;;;;;;;4.05;3.35;;;21.30;99.80;;;;;;5026745;28;20057;-40
2021/07/28 09:52:33;;;;;;;5.63;2.95;;;21.30;99.80;;;;;;5016228;28;20112;-43
2021/07/28 09:55:19;;;;;;;5.07;2.90;;;21.40;99.10;;;;;;5027356;28;20385;-44
2021/07/28 09:57:46;;;;;;;2.83;2.45;;;21.40;98.50;;;;;;5019242;28;20038;-46
2021/07/28 10:00:11;;;;;;;2.88;2.40;;;21.50;98.80;;;;;;5013024;28;20026;-45
2021/07/28 10:02:37;;;;;;;3.38;2.75;;;21.50;98.50;;;;;;5022756;28;20462;-44
2021/07/28 10:05:04;;;;;;;5.43;2.75;;;21.50;98.80;;;;;;5011641;28;20068;-45
2021/07/28 10:07:31;;;;;;;4.78;3.05;;;21.50;97.60;;;;;;5023578;28;20042;-45
2021/07/28 10:10:10;;;;;;;5.97;3.47;;;21.60;98.10;;;;;;5012303;28;20079;-42
2021/07/28 10:12:38;;;;;;;5.80;3.10;;;21.70;98.20;;;;;;5023010;28;20078;-42
2021/07/28 10:15:07;;;;;;;4.38;2.90;;;21.90;98.00;;;;;;5012412;28;20022;-41
2021/07/28 10:17:34;;;;;;;4.95;3.25;;;22.20;97.90;;;;;;5023920;28;20515;-41
2021/07/28 10:20:00;;;;;;;2.53;2.28;;;22.30;97.50;;;;;;5011470;28;20250;-42
2021/07/28 10:22:27;;;;;;;2.50;2.28;;;22.30;96.90;;;;;;5021896;28;20389;-46
2021/07/28 10:24:54;;;;;;;3.28;2.30;;;22.30;96.40;;;;;;5013322;28;20037;-44
2021/07/28 10:27:21;;;;;;;3.50;2.40;;;22.30;96.40;;;;;;5020253;28;20022;-45
2021/07/28 10:29:49;;;;;;;3.17;2.38;;;22.20;96.40;;;;;;5027743;28;20022;-45
2021/07/28 10:32:28;;;;;;;5.80;2.40;;;22.30;96.70;;;;;;5025089;28;20033;-43
2021/07/28 10:35:24;;;;;;;4.05;2.58;;;22.40;96.10;;;;;;5026606;28;20477;-41
2021/07/28 10:37:55;;;;;;;3.95;2.28;;;22.40;96.20;;;;;;5020937;28;20049;-45
2021/07/28 10:40:23;;;;;;;2.60;2.25;;;22.40;96.30;;;;;;5028563;28;20430;-42
2021/07/28 10:42:52;;;;;;;4.35;2.50;;;22.50;96.50;;;;;;5022681;28;20422;-40
2021/07/28 10:45:18;;;;;;;2.58;2.08;;;22.60;96.20;;;;;;5027573;28;20469;-42
2021/07/28 10:47:48;;;;;;;2.90;2.20;;;22.60;96.30;;;;;;5024700;28;20080;-43
2021/07/28 10:50:22;;;;;;;3.22;2.28;;;22.50;96.20;;;;;;5024689;28;20017;-45
2021/07/28 10:53:08;;;;;;;3.03;2.25;;;22.50;95.80;;;;;;5025232;28;20045;-42
2021/07/28 10:55:37;;;;;;;2.65;1.98;;;22.30;96.10;;;;;;5025193;28;20132;-45
2021/07/28 10:58:09;;;;;;;2.47;1.92;;;22.30;96.40;;;;;;5025708;28;20037;-44
2021/07/28 11:00:38;;;;;;;2.45;2.20;;;22.20;96.90;;;;;;5024177;28;20087;-45
2021/07/28 11:03:10;;;;;;;5.22;2.60;;;22.20;97.00;;;;;;5025362;28;20060;-40
2021/07/28 11:05:37;;;;;;;;;;;22.30;96.80;;;;;;5023039;28;20025;-45
2021/07/28 11:08:05;;;;;;;;;;;22.40;96.70;;;;;;5028790;28;20003;-43
2021/07/28 11:10:48;;;;;;;;;;;22.40;96.30;;;;;;5020547;28;20039;-42
2021/07/28 11:13:16;;;;;;;;;;;22.50;96.30;;;;;;5027918;28;19978;-40
2021/07/28 11:15:50;;;;;;;;;;;22.60;96.20;;;;;;5021229;28;19971;-43
2021/07/28 11:18:16;;;;;;;;;;;22.60;95.70;;;;;;5028713;28;20452;-45
2021/07/28 11:20:42;;;;;;;;;;;22.80;95.30;;;;;;5019897;28;20050;-45
2021/07/28 11:23:29;;;;;;;;;;;22.90;95.40;;;;;;5030005;28;19905;-45
2021/07/28 11:25:56;;;;;;;;;;;23.00;94.70;;;;;;5005707;28;20273;-43
2021/07/28 11:28:22;;;;;;;;;;;23.20;95.00;;;;;;5011798;28;20003;-43
2021/07/28 11:30:57;;;;;;;;;;;23.20;94.60;;;;;;5021426;28;20409;-45
2021/07/28 11:33:23;;;;;;;;;;;23.10;94.20;;;;;;5011824;28;19925;-45
2021/07/28 11:35:51;;;;;;;;;;;23.00;94.10;;;;;;5021496;28;19917;-42
2021/07/28 11:38:20;;;;;;;;;;;23.00;94.00;;;;;;5010439;28;19905;-42
2021/07/28 11:40:49;;;;;;;;;;;23.00;93.60;;;;;;5017354;28;19905;-44
2021/07/28 11:43:21;;;;;;;;;;;22.90;94.00;;;;;;5030899;28;19909;-43
2021/07/28 11:45:47;;;;;;;;;;;23.00;93.90;;;;;;5017305;28;19999;-44
2021/07/28 11:48:31;;;;;;;;;;;23.00;93.60;;;;;;5030557;28;19984;-46
2021/07/28 11:51:06;;;;;;;;;;;23.10;93.80;;;;;;5016849;28;19912;-46
2021/07/28 11:53:32;;;;;;;;;;;23.20;93.40;;;;;;5029417;28;20007;-45
2021/07/28 11:56:10;;;;;;;;;;;23.20;93.00;;;;;;5016883;28;19909;-45
2021/07/28 11:58:43;;;;;;;;;;;23.20;93.20;;;;;;5029503;28;20000;-46
2021/07/28 12:01:27;;;;;;;;;;;23.20;93.30;;;;;;5017404;28;19912;-42
2021/07/28 12:04:03;;;;;;;;;;;23.20;93.00;;;;;;5029919;28;19920;-46
2021/07/28 12:06:41;;;;;;;;;;;23.30;92.80;;;;;;5016545;28;19924;-43
2021/07/28 12:09:17;;;;;;;;;;;23.30;93.30;;;;;;5030510;28;19905;-43
2021/07/28 12:11:48;;;;;;;;;;;23.30;93.40;;;;;;5021328;28;19906;-44
2021/07/28 12:14:24;;;;;;;;;;;23.40;93.40;;;;;;5010165;28;19921;-42
2021/07/28 12:16:50;;;;;;;;;;;23.50;93.40;;;;;;5022174;28;19909;-43
2021/07/28 12:19:21;;;;;;;;;;;23.60;93.50;;;;;;5009478;28;19906;-42
2021/07/28 12:21:57;;;;;;;;;;;23.70;93.60;;;;;;5021421;28;19959;-45
2021/07/28 12:24:31;;;;;;;;;;;23.80;93.10;;;;;;5009903;28;19910;-45
2021/07/28 12:27:17;;;;;;;;;;;23.90;93.10;;;;;;5020756;28;19955;-40
2021/07/28 12:29:55;;;;;;;;;;;23.80;92.60;;;;;;5008871;28;19913;-44
2021/07/28 12:32:32;;;;;;;;;;;23.80;92.40;;;;;;5021647;28;19913;-42
2021/07/28 12:34:57;;;;;;;;;;;23.70;92.20;;;;;;5009813;28;19909;-43
2021/07/28 12:37:24;;;;;;;;;;;23.70;92.50;;;;;;5021372;28;19916;-42
2021/07/28 12:39:53;;;;;;;;;;;23.60;92.70;;;;;;5009780;28;19909;-42
2021/07/28 12:42:19;;;;;;;;;;;23.60;92.60;;;;;;5021452;28;19909;-43
2021/07/28 12:44:44;;;;;;;;;;;23.60;92.70;;;;;;5010093;28;19915;-44
2021/07/28 12:47:10;;;;;;;;;;;23.50;92.90;;;;;;5018316;28;19913;-44
2021/07/28 12:49:35;;;;;;;;;;;23.50;92.30;;;;;;5012091;28;20339;-44
2021/07/28 12:52:01;;;;;;;;;;;23.40;92.80;;;;;;5016719;28;19912;-45
2021/07/28 12:54:27;;;;;;;;;;;23.30;92.60;;;;;;5014219;28;19909;-43
2021/07/28 12:56:52;;;;;;;;;;;23.40;93.10;;;;;;5014435;28;19967;-43
2021/07/28 12:59:17;;;;;;;;;;;23.50;93.00;;;;;;5017596;28;19959;-42